地図

経路データ

SID SEASON NUMBER BASIN SUBBASIN NAME ISO_TIME NATURE LAT LON WMO_WIND WMO_PRES WMO_AGENCY TRACK_TYPE DIST2LAND LANDFALL IFLAG USA_AGENCY USA_ATCF_ID USA_LAT USA_LON USA_RECORD USA_STATUS USA_WIND USA_PRES USA_SSHS USA_R34_NE USA_R34_SE USA_R34_SW USA_R34_NW USA_R50_NE USA_R50_SE USA_R50_SW USA_R50_NW USA_R64_NE USA_R64_SE USA_R64_SW USA_R64_NW USA_POCI USA_ROCI USA_RMW USA_EYE TOKYO_LAT TOKYO_LON TOKYO_GRADE TOKYO_WIND TOKYO_PRES TOKYO_R50_DIR TOKYO_R50_LONG TOKYO_R50_SHORT TOKYO_R30_DIR TOKYO_R30_LONG TOKYO_R30_SHORT TOKYO_LAND CMA_LAT CMA_LON CMA_CAT CMA_WIND CMA_PRES HKO_LAT HKO_LON HKO_CAT HKO_WIND HKO_PRES NEWDELHI_LAT NEWDELHI_LON NEWDELHI_GRADE NEWDELHI_WIND NEWDELHI_PRES NEWDELHI_CI NEWDELHI_DP NEWDELHI_POCI REUNION_LAT REUNION_LON REUNION_TYPE REUNION_WIND REUNION_PRES REUNION_TNUM REUNION_CI REUNION_RMW REUNION_R34_NE REUNION_R34_SE REUNION_R34_SW REUNION_R34_NW REUNION_R50_NE REUNION_R50_SE REUNION_R50_SW REUNION_R50_NW REUNION_R64_NE REUNION_R64_SE REUNION_R64_SW REUNION_R64_NW BOM_LAT BOM_LON BOM_TYPE BOM_WIND BOM_PRES BOM_TNUM BOM_CI BOM_RMW BOM_R34_NE BOM_R34_SE BOM_R34_SW BOM_R34_NW BOM_R50_NE BOM_R50_SE BOM_R50_SW BOM_R50_NW BOM_R64_NE BOM_R64_SE BOM_R64_SW BOM_R64_NW BOM_ROCI BOM_POCI BOM_EYE BOM_POS_METHOD BOM_PRES_METHOD NADI_LAT NADI_LON NADI_CAT NADI_WIND NADI_PRES WELLINGTON_LAT WELLINGTON_LON WELLINGTON_WIND WELLINGTON_PRES DS824_LAT DS824_LON DS824_STAGE DS824_WIND DS824_PRES TD9636_LAT TD9636_LON TD9636_STAGE TD9636_WIND TD9636_PRES TD9635_LAT TD9635_LON TD9635_WIND TD9635_PRES TD9635_ROCI NEUMANN_LAT NEUMANN_LON NEUMANN_CLASS NEUMANN_WIND NEUMANN_PRES MLC_LAT MLC_LON MLC_CLASS MLC_WIND MLC_PRES USA_GUST BOM_GUST BOM_GUST_PER REUNION_GUST REUNION_GUST_PER USA_SEAHGT USA_SEARAD_NE USA_SEARAD_SE USA_SEARAD_SW USA_SEARAD_NW STORM_SPEED STORM_DIR
1918067S14154 1918 16 SP EA NOT_NAMED 1918-03-07 23:00:00 NR -13.5000 153.500 bom main 445 437 ______O_______ -1 -13.5000 153.500 15 243
1918067S14154 1918 16 SP EA NOT_NAMED 1918-03-08 00:00:00 TS -13.6100 153.278 main 439 423 ______P__O____ -1 -13.6149 153.266 -13.6000 153.300 TC 15 243
1918067S14154 1918 16 SP EA NOT_NAMED 1918-03-08 03:00:00 TS -13.9521 152.586 main 433 423 ______P__P____ -1 -13.9572 152.567 -13.9443 152.615 TC 15 243
1918067S14154 1918 16 SP EA NOT_NAMED 1918-03-08 06:00:00 TS -14.2888 151.901 main 434 430 ______P__P____ -1 -14.2929 151.876 -14.2833 151.934 TC 15 243
1918067S14154 1918 16 SP EA NOT_NAMED 1918-03-08 09:00:00 TS -14.6157 151.233 main 445 445 ______P__P____ -1 -14.6184 151.200 -14.6131 151.267 TC 14 243
1918067S14154 1918 16 SP EA NOT_NAMED 1918-03-08 12:00:00 TS -14.9300 150.584 main 470 470 ______P__P____ -1 -14.9300 150.549 -14.9300 150.620 TC 14 243
1918067S14154 1918 16 SP EA NOT_NAMED 1918-03-08 15:00:00 TS -15.2274 149.966 main 482 409 ______P__P____ -1 -15.2243 149.930 -15.2306 150.002 TC 13 244
1918067S14154 1918 16 SP EA NOT_NAMED 1918-03-08 18:00:00 TS -15.5047 149.386 main 409 351 ______P__P____ -1 -15.4981 149.351 -15.5113 149.421 TC 12 244
1918067S14154 1918 16 SP EA NOT_NAMED 1918-03-08 21:00:00 TS -15.7585 148.853 main 347 313 ______P__P____ -1 -15.7481 148.822 -15.7688 148.884 TC 11 244
1918067S14154 1918 16 SP EA NOT_NAMED 1918-03-08 23:00:00 TS -15.9130 148.528 bom main 303 289 ______O__P____ -1 -15.9000 148.500 -15.9261 148.555 TC 10 244
1918067S14154 1918 16 SP EA NOT_NAMED 1918-03-09 00:00:00 TS -15.9856 148.375 main 289 241 ______P__O____ -1 -15.9713 148.349 -16.0000 148.400 TC 9 244
1918067S14154 1918 16 SP EA NOT_NAMED 1918-03-09 03:00:00 TS -16.1855 147.953 main 241 193 ______P__P____ -1 -16.1679 147.934 -16.2032 147.973 TC 9 244
1918067S14154 1918 16 SP EA NOT_NAMED 1918-03-09 06:00:00 TS -16.3631 147.580 main 193 159 ______P__P____ -1 -16.3433 147.566 -16.3829 147.595 TC 8 244
1918067S14154 1918 16 SP EA NOT_NAMED 1918-03-09 09:00:00 TS -16.5242 147.244 main 149 111 ______P__P____ -1 -16.5031 147.233 -16.5452 147.254 TC 7 243
1918067S14154 1918 16 SP EA NOT_NAMED 1918-03-09 12:00:00 TS -16.6744 146.931 main 111 77 ______P__P____ -1 -16.6526 146.923 -16.6961 146.939 TC 7 243
1918067S14154 1918 16 SP EA NOT_NAMED 1918-03-09 15:00:00 TS -16.8193 146.632 main 77 53 ______P__P____ -1 -16.7973 146.626 -16.8413 146.638 TC 6 243
1918067S14154 1918 16 SP EA NOT_NAMED 1918-03-09 18:00:00 TS -16.9646 146.334 main 42 10 ______P__P____ -1 -16.9426 146.328 -16.9866 146.339 TC 7 243
1918067S14154 1918 16 SP EA NOT_NAMED 1918-03-09 21:00:00 TS -17.1156 146.025 main 10 0 ______P__P____ -1 -17.0936 146.019 -17.1376 146.030 TC 7 243
1918067S14154 1918 16 SP EA NOT_NAMED 1918-03-09 23:00:00 TS -17.2221 145.807 944 bom main 0 0 ______O__P____ -1 -17.2000 145.800 944 4 -17.2443 145.813 TC 7 244
1918067S14154 1918 16 SP EA NOT_NAMED 1918-03-10 00:00:00 TS -17.2693 145.692 main 0 0 ______P__O____ -1 -17.2385 145.684 -17.3000 145.700 TC 100 944 7 247
1918067S14154 1918 16 SP EA NOT_NAMED 1918-03-10 03:00:00 TS -17.4131 145.335 main 0 0 ______P__P____ -1 -17.3482 145.330 -17.4779 145.339 TC 8 247
1918067S14154 1918 16 SP EA NOT_NAMED 1918-03-10 06:00:00 TS -17.5652 144.957 main 0 0 ______P__P____ -1 -17.4600 144.966 -17.6703 144.947 TC 8 247
1918067S14154 1918 16 SP EA NOT_NAMED 1918-03-10 09:00:00 TS -17.7314 144.558 main 0 0 ______P__P____ -1 -17.5878 144.585 -17.8750 144.530 TC 9 246
1918067S14154 1918 16 SP EA NOT_NAMED 1918-03-10 12:00:00 TS -17.9174 144.136 main 0 0 ______P__P____ -1 -17.7454 144.181 -18.0894 144.092 TC 9 244
1918067S14154 1918 16 SP EA NOT_NAMED 1918-03-10 15:00:00 TS -18.1290 143.691 main 0 0 ______P__P____ -1 -17.9465 143.747 -18.3114 143.635 TC 10 242
1918067S14154 1918 16 SP EA NOT_NAMED 1918-03-10 18:00:00 TS -18.3718 143.222 main 0 0 ______P__P____ -1 -18.2049 143.278 -18.5387 143.165 TC 10 241
1918067S14154 1918 16 SP EA NOT_NAMED 1918-03-10 21:00:00 TS -18.6349 142.732 main 0 0 ______P__P____ -1 -18.5343 142.768 -18.7689 142.685 TC 11 239
1918067S14154 1918 16 SP EA NOT_NAMED 1918-03-10 23:00:00 TS -18.8410 142.387 bom main 0 0 ______O__P____ -1 -18.8000 142.400 -18.9230 142.362 TC 12 238
1918067S14154 1918 16 SP EA NOT_NAMED 1918-03-11 00:00:00 TS -18.9568 142.191 main 0 0 ______P__O____ -1 -18.9460 142.189 -19.0000 142.200 TC 15 233
1918067S14154 1918 16 SP EA NOT_NAMED 1918-03-11 03:00:00 NR -19.4283 141.575 main 0 0 ______P_______ -1 -19.4283 141.575 TC 15 229
1918067S14154 1918 16 SP EA NOT_NAMED 1918-03-11 04:00:00 NR -19.6000 141.400 bom main 0 0 ______O_______ -1 -19.6000 141.400 TC 13 221
1918067S14154 1918 16 SP EA NOT_NAMED 1918-03-11 06:00:00 NR -19.9262 141.115 main 0 0 ______P_______ -1 -19.9262 141.115 TC 13 212
1918067S14154 1918 16 SP EA NOT_NAMED 1918-03-11 09:00:00 NR -20.5000 140.800 bom main 0 0 ______O_______ -1 -20.5000 140.800 TC 15 203
1918067S14154 1918 16 SP EA NOT_NAMED 1918-03-11 12:00:00 NR -21.2595 140.524 main 0 0 ______P_______ -1 -21.2595 140.524 TC 16 196
1918067S14154 1918 16 SP EA NOT_NAMED 1918-03-11 14:00:00 NR -21.8000 140.400 bom main 0 0 ______O_______ -1 -21.8000 140.400 TC 16 191
1918067S14154 1918 16 SP EA NOT_NAMED 1918-03-11 15:00:00 NR -22.0597 140.360 main 0 0 ______P_______ -1 -22.0597 140.360 TC 15 185
1918067S14154 1918 16 SP EA NOT_NAMED 1918-03-11 18:00:00 NR -22.7875 140.318 main 0 0 ______P_______ -1 -22.7875 140.318 TC 14 0
1918067S14154 1918 16 SP EA NOT_NAMED 1918-03-11 21:00:00 NR -23.4631 140.354 main 0 0 ______P_______ -1 -23.4631 140.354 TC 13 176
1918067S14154 1918 16 SP EA NOT_NAMED 1918-03-11 23:00:00 NR -23.9000 140.400 bom main 0 ______O_______ -1 -23.9000 140.400 TC 13 175

デジタル台風データ・検索

IBTrACS Databaseについて

本データベースは、米国NOAAが公開する1842年以降の世界の熱帯低気圧のベストトラックデータアーカイブInternational Best Track Archive for Climate Stewardship (IBTrACS)を、ウェブで閲覧しやすい形式に変換したものです。

最終更新日:2021-10-25